Time;durP1;ratioP1;P1;durP2;ratioP2;P2;SDS_P1;SDS_P2;PMS_P1;PMS_P2;Temp;Humidity;BMP_temperature;BMP_pressure;BME280_temperature;BME280_humidity;BME280_pressure;Samples;Min_cycle;Max_cycle;Signal;HPM_P1;HPM_P2
2023/02/20 00:00:43;;;;;;;2.05;0.75;;;11.80;74.50;;;;;;4924003;29;20475;-76
2023/02/20 00:03:09;;;;;;;4.32;1.13;;;11.80;74.50;;;;;;4926405;29;20048;-75
2023/02/20 00:05:35;;;;;;;2.58;0.90;;;11.80;75.00;;;;;;4925291;29;20039;-75
2023/02/20 00:08:01;;;;;;;3.30;1.10;;;11.80;74.40;;;;;;4926583;29;20035;-75
2023/02/20 00:10:27;;;;;;;4.18;0.98;;;11.80;74.40;;;;;;4925579;29;20134;-77
2023/02/20 00:12:53;;;;;;;6.22;1.00;;;11.80;74.50;;;;;;4924164;29;20032;-75
2023/02/20 00:15:20;;;;;;;3.30;1.13;;;11.80;74.40;;;;;;4926484;29;20031;-75
2023/02/20 00:17:46;;;;;;;3.53;0.80;;;11.80;74.50;;;;;;4922571;29;20437;-76
2023/02/20 00:20:15;;;;;;;1.77;0.80;;;11.80;74.50;;;;;;4926102;29;20075;-75
2023/02/20 00:22:41;;;;;;;2.45;0.75;;;11.80;74.50;;;;;;4924131;29;20043;-75
2023/02/20 00:25:07;;;;;;;5.53;1.73;;;11.80;74.40;;;;;;4924751;29;20097;-75
2023/02/20 00:27:32;;;;;;;3.75;0.73;;;11.80;74.50;;;;;;4922569;29;20039;-75
2023/02/20 00:29:58;;;;;;;2.65;0.80;;;11.70;74.30;;;;;;4924914;29;20518;-76
2023/02/20 00:32:24;;;;;;;2.25;0.90;;;11.80;74.40;;;;;;4917535;29;20128;-75
2023/02/20 00:34:50;;;;;;;4.65;1.15;;;11.70;74.20;;;;;;4924611;29;20048;-74
2023/02/20 00:37:16;;;;;;;4.45;2.47;;;11.70;74.20;;;;;;4924290;29;20094;-76
2023/02/20 00:39:42;;;;;;;3.65;0.73;;;11.70;74.20;;;;;;4921093;29;20460;-75
2023/02/20 00:42:08;;;;;;;6.13;1.00;;;11.70;74.20;;;;;;4924937;29;20078;-75
2023/02/20 00:44:34;;;;;;;2.58;0.82;;;11.70;74.20;;;;;;4921903;29;20082;-75
2023/02/20 00:47:00;;;;;;;3.85;1.80;;;11.70;74.20;;;;;;4915865;29;20131;-75
2023/02/20 00:49:27;;;;;;;4.88;1.15;;;11.70;74.20;;;;;;4924649;29;20484;-75
2023/02/20 00:51:53;;;;;;;8.50;1.60;;;11.70;74.30;;;;;;4918593;29;20032;-76
2023/02/20 00:54:19;;;;;;;4.38;1.25;;;11.60;74.10;;;;;;4924573;29;20028;-75
2023/02/20 00:56:45;;;;;;;3.95;0.80;;;11.60;74.10;;;;;;4925414;29;20036;-75
2023/02/20 00:59:11;;;;;;;3.60;0.93;;;11.60;74.10;;;;;;4904604;29;20692;-75
2023/02/20 01:01:37;;;;;;;7.20;1.23;;;11.60;74.10;;;;;;4922557;29;20134;-75
2023/02/20 01:04:04;;;;;;;7.95;1.75;;;11.60;74.10;;;;;;4922387;29;20036;-75
2023/02/20 01:06:29;;;;;;;4.00;0.80;;;11.60;74.10;;;;;;4908679;29;20109;-75
2023/02/20 01:08:56;;;;;;;5.45;2.35;;;11.60;74.20;;;;;;4923568;29;20040;-76
2023/02/20 01:11:22;;;;;;;3.67;1.10;;;11.60;74.20;;;;;;4919030;29;20035;-75
2023/02/20 01:13:48;;;;;;;6.53;1.13;;;11.60;74.20;;;;;;4922608;29;20980;-75
2023/02/20 01:16:14;;;;;;;7.20;1.67;;;11.60;74.20;;;;;;4923733;29;20104;-75
2023/02/20 01:18:42;;;;;;;5.20;1.33;;;11.60;74.30;;;;;;4921859;29;20062;-75
2023/02/20 01:21:08;;;;;;;5.95;1.25;;;11.50;74.10;;;;;;4923497;29;20090;-75
2023/02/20 01:23:34;;;;;;;7.80;1.70;;;11.60;74.30;;;;;;4922028;29;20039;-76
2023/02/20 01:26:00;;;;;;;5.70;1.42;;;11.60;74.30;;;;;;4924124;29;20511;-75
2023/02/20 01:28:27;;;;;;;6.28;1.25;;;11.50;74.10;;;;;;4922677;29;20270;-75
2023/02/20 01:30:53;;;;;;;3.85;1.25;;;11.50;74.10;;;;;;4920000;29;20564;-76
2023/02/20 01:33:19;;;;;;;3.28;1.10;;;11.50;74.10;;;;;;4924141;29;20173;-75
2023/02/20 01:35:45;;;;;;;8.38;1.45;;;11.50;74.10;;;;;;4923487;29;20037;-75
2023/02/20 01:38:10;;;;;;;6.28;1.73;;;11.50;74.10;;;;;;4923826;29;20118;-75
2023/02/20 01:40:36;;;;;;;2.92;1.15;;;11.50;74.10;;;;;;4924301;29;20036;-75
2023/02/20 01:43:03;;;;;;;4.57;2.40;;;11.50;74.20;;;;;;4921221;29;20102;-75
2023/02/20 01:45:34;;;;;;;4.68;1.10;;;11.50;74.20;;;;;;4915715;29;20091;-75
2023/02/20 01:48:01;;;;;;;5.40;1.30;;;11.50;74.20;;;;;;4923199;29;20043;-76
2023/02/20 01:50:38;;;;;;;9.90;1.67;;;11.50;74.20;;;;;;4924382;29;20458;-76
2023/02/20 01:53:12;;;;;;;5.68;1.88;;;11.50;74.20;;;;;;4921822;29;20039;-75
2023/02/20 01:55:42;;;;;;;3.47;1.02;;;11.40;74.10;;;;;;4922764;29;20510;-75
2023/02/20 01:58:16;;;;;;;5.15;1.52;;;11.40;74.10;;;;;;4921690;29;20373;-75
2023/02/20 02:00:42;;;;;;;6.35;1.67;;;11.50;74.30;;;;;;4917335;29;20036;-75
2023/02/20 02:03:14;;;;;;;5.65;1.45;;;11.40;74.10;;;;;;4923964;29;20140;-75
2023/02/20 02:05:45;;;;;;;3.00;1.30;;;11.40;74.20;;;;;;4923076;29;20039;-75
2023/02/20 02:08:14;;;;;;;5.22;2.92;;;11.40;74.20;;;;;;4923306;29;20379;-75
2023/02/20 02:11:00;;;;;;;4.72;1.35;;;11.40;74.20;;;;;;4917940;29;20519;-74
2023/02/20 02:13:27;;;;;;;11.27;2.20;;;11.40;74.20;;;;;;4923802;29;20123;-75
2023/02/20 02:16:21;;;;;;;5.60;1.25;;;11.40;74.20;;;;;;4925000;29;21002;-75
2023/02/20 02:19:05;;;;;;;5.22;2.50;;;11.40;74.20;;;;;;4922723;29;20035;-76
2023/02/20 02:21:46;;;;;;;3.13;1.08;;;11.40;74.30;;;;;;4924380;29;20073;-75
2023/02/20 02:24:37;;;;;;;3.63;0.90;;;11.40;74.30;;;;;;4916936;29;20044;-76
2023/02/20 02:27:30;;;;;;;7.90;1.63;;;11.40;74.40;;;;;;4921384;29;20188;-76
2023/02/20 02:29:59;;;;;;;3.67;1.02;;;11.40;74.30;;;;;;4926132;29;20058;-75
2023/02/20 02:32:44;;;;;;;3.83;1.00;;;11.40;74.30;;;;;;4922421;29;20512;-75
2023/02/20 02:35:23;;;;;;;2.97;0.98;;;11.30;74.10;;;;;;4940537;28;20150;-75
2023/02/20 02:38:12;;;;;;;4.78;1.42;;;11.40;74.40;;;;;;4927074;29;20114;-76
2023/02/20 02:41:08;;;;;;;2.58;0.93;;;11.30;74.20;;;;;;4925076;29;20205;-76
2023/02/20 02:43:49;;;;;;;9.40;1.48;;;11.30;74.20;;;;;;4925592;29;20044;-75
2023/02/20 02:46:38;;;;;;;5.82;1.00;;;11.30;74.20;;;;;;4923300;29;20067;-74
2023/02/20 02:49:26;;;;;;;6.55;2.42;;;11.30;74.20;;;;;;4912376;29;20040;-75
2023/02/20 02:51:54;;;;;;;5.07;1.85;;;11.30;74.20;;;;;;4931882;29;20166;-75
2023/02/20 02:54:27;;;;;;;4.07;1.55;;;11.30;74.20;;;;;;4928197;29;20176;-75
2023/02/20 02:57:13;;;;;;;2.90;1.00;;;11.30;74.20;;;;;;4929781;29;20027;-75
2023/02/20 02:59:41;;;;;;;3.40;1.15;;;11.30;74.20;;;;;;4926709;29;20491;-75
2023/02/20 03:02:13;;;;;;;4.90;1.45;;;11.30;74.20;;;;;;4924368;29;20479;-75
2023/02/20 03:04:43;;;;;;;5.57;1.42;;;11.30;74.30;;;;;;4929346;29;20071;-74
2023/02/20 03:07:15;;;;;;;4.07;1.00;;;11.30;74.30;;;;;;4921138;29;20403;-75
2023/02/20 03:09:47;;;;;;;4.68;1.45;;;11.30;74.60;;;;;;4927451;29;20052;-75
2023/02/20 03:12:14;;;;;;;5.18;2.15;;;11.30;74.40;;;;;;4928800;29;20024;-75
2023/02/20 03:17:53;;;;;;;3.28;1.23;;;11.30;74.40;;;;;;4928603;29;20039;-75
2023/02/20 03:20:21;;;;;;;2.88;1.00;;;11.30;74.30;;;;;;4930846;29;20028;-75
2023/02/20 03:22:55;;;;;;;3.42;1.00;;;11.30;74.30;;;;;;4927495;29;20051;-75
2023/02/20 03:25:36;;;;;;;5.30;1.00;;;11.30;74.30;;;;;;4928613;29;20163;-76
2023/02/20 03:28:12;;;;;;;4.38;1.52;;;11.30;74.30;;;;;;4928371;29;20031;-75
2023/02/20 03:30:47;;;;;;;3.90;1.00;;;11.30;74.30;;;;;;4929194;29;20079;-75
2023/02/20 03:44:51;;;;;;;1.45;0.85;;;11.20;74.00;;;;;;4921875;29;20031;-77
2023/02/20 03:47:21;;;;;;;1.70;0.60;;;11.20;74.00;;;;;;4927459;29;20048;-75
2023/02/20 03:52:36;;;;;;;1.13;0.60;;;11.10;73.90;;;;;;4920565;29;20229;-76
2023/02/20 03:55:04;;;;;;;1.77;0.60;;;11.10;73.90;;;;;;4926088;29;20182;-76
2023/02/20 03:57:35;;;;;;;1.98;0.90;;;11.20;74.10;;;;;;4927661;29;20054;-76
2023/02/20 04:00:10;;;;;;;1.98;0.70;;;11.10;73.90;;;;;;4926647;29;20495;-75
2023/02/20 04:02:53;;;;;;;4.20;1.48;;;11.10;73.90;;;;;;4925489;29;20043;-76
2023/02/20 04:05:25;;;;;;;0.90;0.57;;;11.20;74.00;;;;;;4929214;29;20182;-75
2023/02/20 04:08:04;;;;;;;2.08;0.70;;;11.20;74.10;;;;;;4913691;29;20049;-75
2023/02/20 04:10:38;;;;;;;2.58;0.82;;;11.10;73.90;;;;;;4918227;29;20051;-76
2023/02/20 04:13:05;;;;;;;4.35;2.05;;;11.10;73.80;;;;;;4926390;29;20036;-76
2023/02/20 04:15:32;;;;;;;4.40;1.10;;;11.10;73.80;;;;;;4929543;29;20042;-75
2023/02/20 04:18:05;;;;;;;1.75;1.30;;;11.10;73.80;;;;;;4928614;29;20042;-75
2023/02/20 04:20:31;;;;;;;1.40;0.68;;;11.10;73.80;;;;;;4909711;29;20504;-76
2023/02/20 04:23:17;;;;;;;2.08;1.38;;;11.10;73.80;;;;;;4926258;29;20039;-76
2023/02/20 04:25:54;;;;;;;2.85;0.80;;;11.10;73.80;;;;;;4928439;29;20090;-76
2023/02/20 04:28:21;;;;;;;1.73;1.38;;;11.10;73.80;;;;;;4924146;29;20534;-77
2023/02/20 04:30:56;;;;;;;3.40;0.80;;;11.10;73.80;;;;;;4927707;29;20515;-76
2023/02/20 04:33:23;;;;;;;1.45;1.00;;;11.10;73.80;;;;;;4921364;29;20075;-76
2023/02/20 04:35:53;;;;;;;3.30;0.80;;;11.10;73.80;;;;;;4927942;29;20036;-75
2023/02/20 04:38:20;;;;;;;4.30;0.70;;;11.10;73.80;;;;;;4927133;29;20038;-76
2023/02/20 04:40:46;;;;;;;2.72;0.80;;;11.00;73.70;;;;;;4926763;29;20514;-76
2023/02/20 04:43:12;;;;;;;2.58;0.90;;;11.00;73.60;;;;;;4919876;29;20044;-76
2023/02/20 04:45:39;;;;;;;2.70;0.73;;;11.00;73.70;;;;;;4927214;29;20488;-75
2023/02/20 04:48:05;;;;;;;2.83;1.00;;;11.00;73.60;;;;;;4926221;29;20067;-76
2023/02/20 04:50:32;;;;;;;1.38;0.75;;;11.00;73.60;;;;;;4928030;29;20078;-75
2023/02/20 04:53:00;;;;;;;2.03;1.15;;;11.00;73.60;;;;;;4926132;29;20038;-75
2023/02/20 04:55:27;;;;;;;1.90;0.77;;;11.00;73.60;;;;;;4925777;29;20058;-75
2023/02/20 04:57:57;;;;;;;2.72;0.95;;;11.00;74.10;;;;;;4926015;29;20039;-76
2023/02/20 05:00:26;;;;;;;1.75;1.00;;;11.00;73.70;;;;;;4927751;29;20594;-76
2023/02/20 05:02:52;;;;;;;2.25;0.70;;;11.00;73.60;;;;;;4921002;29;20040;-77
2023/02/20 05:05:24;;;;;;;1.55;0.70;;;11.00;73.60;;;;;;4924794;29;20104;-77
2023/02/20 05:07:55;;;;;;;1.80;1.00;;;11.00;73.60;;;;;;4917713;29;20043;-77
2023/02/20 05:10:22;;;;;;;0.70;0.60;;;11.00;73.70;;;;;;4925787;29;20075;-77
2023/02/20 05:12:48;;;;;;;2.33;0.77;;;11.00;73.60;;;;;;4926715;29;20039;-76
2023/02/20 05:15:14;;;;;;;1.50;0.70;;;11.00;73.60;;;;;;4922265;29;20068;-76
2023/02/20 05:17:40;;;;;;;0.75;0.50;;;11.00;73.70;;;;;;4929378;29;20122;-77
2023/02/20 05:20:07;;;;;;;1.27;0.50;;;11.00;73.70;;;;;;4928911;29;20367;-76
2023/02/20 05:22:33;;;;;;;1.95;0.88;;;11.00;73.70;;;;;;4929357;29;20131;-76
2023/02/20 05:24:59;;;;;;;2.03;0.95;;;11.00;73.80;;;;;;4926501;29;20114;-76
2023/02/20 05:27:26;;;;;;;1.73;0.80;;;11.00;73.80;;;;;;4926886;29;20043;-76
2023/02/20 05:29:55;;;;;;;2.22;0.50;;;11.00;73.80;;;;;;4927556;29;20379;-76
2023/02/20 05:32:23;;;;;;;2.72;0.65;;;11.00;73.80;;;;;;4929066;29;20511;-76
2023/02/20 05:34:49;;;;;;;1.88;0.85;;;11.00;73.80;;;;;;4927831;29;20192;-77
2023/02/20 05:37:17;;;;;;;2.15;0.60;;;11.00;73.90;;;;;;4929145;29;20063;-76
2023/02/20 05:39:44;;;;;;;1.30;0.60;;;11.10;74.10;;;;;;4926696;29;20031;-75
2023/02/20 05:42:10;;;;;;;1.92;0.60;;;11.10;74.10;;;;;;4928683;29;20031;-75
2023/02/20 05:44:36;;;;;;;2.80;0.80;;;11.10;74.10;;;;;;4926347;29;20039;-75
2023/02/20 05:47:03;;;;;;;2.05;0.70;;;11.10;74.20;;;;;;4926372;29;20400;-75
2023/02/20 05:49:29;;;;;;;2.33;1.13;;;11.10;74.20;;;;;;4922654;29;20203;-76
2023/02/20 05:51:56;;;;;;;2.83;0.70;;;11.10;74.20;;;;;;4922707;29;20070;-75
2023/02/20 05:54:23;;;;;;;1.02;0.73;;;11.20;74.40;;;;;;4923974;29;20078;-76
2023/02/20 05:56:49;;;;;;;2.47;1.05;;;11.10;74.30;;;;;;4917899;29;20039;-76
2023/02/20 05:59:19;;;;;;;1.30;0.85;;;11.20;74.50;;;;;;4919729;29;20050;-76
2023/02/20 06:01:45;;;;;;;2.08;0.70;;;11.20;74.50;;;;;;4922045;29;20054;-75
2023/02/20 06:04:11;;;;;;;1.52;0.73;;;11.20;74.50;;;;;;4924091;29;20519;-75
2023/02/20 06:06:40;;;;;;;3.22;0.95;;;11.20;74.50;;;;;;4927305;29;20860;-75
2023/02/20 06:09:12;;;;;;;3.05;0.80;;;11.30;74.80;;;;;;4923373;29;20162;-75
2023/02/20 06:11:38;;;;;;;1.67;0.70;;;11.30;74.80;;;;;;4925626;29;20036;-75
2023/02/20 06:14:06;;;;;;;1.48;0.75;;;11.30;74.80;;;;;;4926601;29;20440;-75
2023/02/20 06:16:33;;;;;;;0.88;0.47;;;11.40;75.00;;;;;;4923176;29;20048;-76
2023/02/20 06:18:59;;;;;;;1.13;0.60;;;11.40;75.00;;;;;;4926033;29;20078;-75
2023/02/20 06:21:25;;;;;;;1.83;0.80;;;11.40;75.00;;;;;;4922282;29;20028;-76
2023/02/20 06:23:53;;;;;;;1.92;0.40;;;11.40;75.00;;;;;;4918930;29;20084;-76
2023/02/20 06:26:20;;;;;;;2.28;0.60;;;11.40;75.00;;;;;;4919593;29;20032;-76
2023/02/20 06:28:49;;;;;;;1.23;0.60;;;11.40;75.00;;;;;;4922006;29;20142;-76
2023/02/20 06:31:26;;;;;;;2.58;0.80;;;11.50;75.20;;;;;;4924371;29;20047;-75
2023/02/20 06:33:53;;;;;;;1.75;0.85;;;11.50;75.30;;;;;;4912798;29;20119;-75
2023/02/20 06:36:24;;;;;;;1.13;0.50;;;11.50;75.30;;;;;;4908514;29;20040;-75
2023/02/20 06:38:51;;;;;;;2.85;0.85;;;11.50;75.30;;;;;;4918694;29;20031;-76
2023/02/20 06:41:17;;;;;;;1.75;0.50;;;11.60;75.50;;;;;;4921482;29;20039;-75
2023/02/20 06:43:43;;;;;;;1.75;1.42;;;11.60;75.50;;;;;;4919965;29;20071;-75
2023/02/20 06:46:09;;;;;;;2.90;1.75;;;11.60;75.50;;;;;;4924622;29;20042;-75
2023/02/20 06:48:46;;;;;;;2.78;0.50;;;11.60;75.60;;;;;;4918568;29;20054;-75
2023/02/20 06:51:15;;;;;;;3.08;0.47;;;11.70;75.80;;;;;;4920394;29;20063;-75
2023/02/20 06:53:41;;;;;;;1.35;0.47;;;11.70;75.70;;;;;;4920974;29;20038;-76
2023/02/20 06:56:09;;;;;;;1.58;0.73;;;11.70;75.80;;;;;;4917743;29;20035;-74
2023/02/20 06:58:36;;;;;;;2.38;1.13;;;11.70;75.70;;;;;;4921637;29;20390;-76
2023/02/20 07:01:02;;;;;;;1.80;0.40;;;11.70;75.70;;;;;;4905237;29;20044;-75
2023/02/20 07:03:28;;;;;;;1.75;0.50;;;11.70;75.90;;;;;;4918953;29;20074;-78
2023/02/20 07:05:54;;;;;;;2.00;0.50;;;11.70;76.00;;;;;;4921545;29;20038;-77
2023/02/20 07:08:20;;;;;;;0.93;0.73;;;11.80;76.30;;;;;;4915400;29;20081;-76
2023/02/20 07:10:45;;;;;;;4.57;1.23;;;11.90;76.70;;;;;;4913597;29;20038;-76
2023/02/20 07:13:11;;;;;;;2.17;1.10;;;12.00;77.10;;;;;;4918010;29;20622;-76
2023/02/20 07:15:37;;;;;;;3.03;1.02;;;12.00;77.20;;;;;;4919863;28;20051;-79
2023/02/20 07:18:03;;;;;;;3.38;1.00;;;12.10;77.30;;;;;;4929247;29;20055;-80
2023/02/20 07:20:29;;;;;;;3.33;0.50;;;12.10;77.30;;;;;;4919934;29;20570;-75
2023/02/20 07:22:55;;;;;;;2.22;1.00;;;12.10;77.30;;;;;;4922399;29;20052;-81
2023/02/20 07:25:22;;;;;;;2.30;0.93;;;12.10;77.20;;;;;;4910805;29;20040;-80
2023/02/20 07:27:48;;;;;;;1.75;0.60;;;12.10;77.20;;;;;;4916048;28;20127;-80
2023/02/20 07:30:14;;;;;;;2.53;1.00;;;12.00;77.00;;;;;;4918787;29;20083;-75
2023/02/20 07:32:39;;;;;;;2.38;0.82;;;12.00;77.00;;;;;;4920040;29;20265;-78
2023/02/20 07:35:06;;;;;;;2.13;0.55;;;12.00;77.00;;;;;;4917472;29;20035;-78
2023/02/20 07:37:32;;;;;;;2.13;0.80;;;11.90;76.70;;;;;;4919465;29;20050;-77
2023/02/20 07:39:58;;;;;;;1.55;0.50;;;11.90;76.70;;;;;;4923112;29;20259;-76
2023/02/20 07:42:24;;;;;;;1.67;0.57;;;11.90;76.70;;;;;;4917441;29;20415;-76
2023/02/20 07:44:58;;;;;;;1.38;0.80;;;11.90;76.60;;;;;;4918155;29;20044;-72
2023/02/20 07:47:24;;;;;;;7.22;1.30;;;11.90;76.60;;;;;;4905571;29;20087;-72
2023/02/20 07:49:50;;;;;;;1.63;0.50;;;11.80;76.30;;;;;;4919386;29;20488;-72
2023/02/20 07:52:15;;;;;;;0.80;0.40;;;11.80;76.20;;;;;;4922498;29;20143;-73
2023/02/20 07:54:42;;;;;;;1.08;0.50;;;11.80;76.20;;;;;;4914741;29;20035;-73
2023/02/20 07:57:08;;;;;;;1.35;0.68;;;11.80;76.20;;;;;;4920176;29;20035;-72
2023/02/20 07:59:34;;;;;;;2.10;0.77;;;11.80;76.10;;;;;;4919151;29;20520;-73
2023/02/20 08:02:00;;;;;;;2.45;0.65;;;11.80;76.00;;;;;;4921573;29;20038;-76
2023/02/20 08:04:26;;;;;;;2.45;0.82;;;11.80;76.00;;;;;;4916410;29;20028;-76
2023/02/20 08:06:52;;;;;;;1.40;0.65;;;11.80;75.90;;;;;;4917849;29;20205;-73
2023/02/20 08:09:18;;;;;;;1.75;0.63;;;11.80;75.90;;;;;;4916257;29;20237;-76
2023/02/20 08:11:44;;;;;;;1.20;0.60;;;11.80;75.80;;;;;;4923353;29;20031;-79
2023/02/20 08:14:13;;;;;;;3.05;0.77;;;11.80;75.80;;;;;;4915600;29;20035;-79
2023/02/20 08:16:42;;;;;;;1.60;0.60;;;11.80;76.20;;;;;;4924028;29;20127;-78
2023/02/20 08:19:08;;;;;;;2.80;0.80;;;11.80;75.70;;;;;;4918475;29;20122;-78
2023/02/20 08:21:33;;;;;;;0.90;0.70;;;11.80;75.60;;;;;;4916072;29;20036;-77
2023/02/20 08:23:59;;;;;;;4.32;0.80;;;11.80;75.60;;;;;;4920489;29;20144;-79
2023/02/20 08:26:25;;;;;;;0.75;0.47;;;11.90;75.70;;;;;;4923280;29;20068;-78
2023/02/20 08:28:54;;;;;;;1.92;0.80;;;11.90;75.60;;;;;;4915777;29;20369;-79
2023/02/20 08:31:21;;;;;;;2.95;0.65;;;11.90;75.50;;;;;;4921888;29;20047;-78
2023/02/20 08:33:47;;;;;;;4.13;0.88;;;12.00;75.60;;;;;;4916593;29;20047;-77
2023/02/20 08:36:14;;;;;;;2.75;0.80;;;12.00;75.50;;;;;;4910873;29;20652;-76
2023/02/20 08:38:40;;;;;;;3.45;1.10;;;12.00;75.40;;;;;;4923655;29;20193;-75
2023/02/20 08:41:09;;;;;;;3.63;0.65;;;12.10;75.50;;;;;;4921338;29;20338;-75
2023/02/20 08:43:36;;;;;;;0.90;0.70;;;12.10;75.30;;;;;;4920444;29;20545;-74
2023/02/20 08:46:04;;;;;;;1.70;0.55;;;12.10;75.20;;;;;;4915670;29;20036;-74
2023/02/20 08:48:31;;;;;;;1.92;0.57;;;12.10;75.10;;;;;;4922692;29;20043;-74
2023/02/20 08:50:57;;;;;;;3.38;0.57;;;12.20;75.20;;;;;;4918862;29;20709;-79
2023/02/20 08:53:23;;;;;;;0.95;0.60;;;12.20;75.10;;;;;;4922163;29;20036;-78
2023/02/20 08:55:49;;;;;;;3.10;0.60;;;12.30;75.20;;;;;;4919056;29;20040;-78
2023/02/20 08:58:22;;;;;;;7.38;1.20;;;12.30;75.10;;;;;;4914886;29;20101;-78
2023/02/20 09:00:48;;;;;;;3.95;0.95;;;12.30;75.00;;;;;;4921749;29;20432;-79
2023/02/20 09:03:15;;;;;;;5.13;0.80;;;12.40;75.30;;;;;;4921585;29;20051;-77
2023/02/20 09:05:43;;;;;;;2.40;0.68;;;12.50;75.40;;;;;;4919984;29;20035;-75
2023/02/20 09:08:09;;;;;;;1.60;0.50;;;12.60;75.40;;;;;;4921055;29;20050;-74
2023/02/20 09:10:35;;;;;;;2.33;0.50;;;12.70;75.60;;;;;;4918522;29;20031;-75
2023/02/20 09:13:01;;;;;;;2.70;0.70;;;12.80;75.60;;;;;;4920941;29;20043;-79
2023/02/20 09:15:28;;;;;;;3.08;0.93;;;12.90;75.60;;;;;;4922469;29;20028;-79
2023/02/20 09:17:54;;;;;;;1.33;0.60;;;13.00;75.60;;;;;;4921066;29;20074;-79
2023/02/20 09:20:21;;;;;;;0.60;0.50;;;13.10;75.60;;;;;;4921873;29;20115;-79
2023/02/20 09:22:49;;;;;;;1.45;0.95;;;13.20;75.70;;;;;;4905563;29;20051;-78
2023/02/20 09:25:16;;;;;;;1.80;0.50;;;13.30;75.80;;;;;;4918682;29;20255;-79
2023/02/20 09:27:42;;;;;;;0.80;0.40;;;13.30;75.60;;;;;;4915612;29;20711;-79
2023/02/20 09:30:11;;;;;;;1.25;0.50;;;13.40;75.70;;;;;;4921964;29;20052;-75
2023/02/20 09:32:37;;;;;;;1.95;0.50;;;13.50;75.80;;;;;;4919050;29;20046;-75
2023/02/20 09:35:03;;;;;;;1.10;0.50;;;13.60;75.90;;;;;;4919415;29;20479;-75
2023/02/20 09:37:29;;;;;;;1.17;0.60;;;13.60;75.70;;;;;;4920883;29;20496;-80
2023/02/20 09:39:55;;;;;;;1.08;0.30;;;13.80;75.80;;;;;;4920454;29;20036;-80
2023/02/20 09:42:33;;;;;;;1.73;0.63;;;13.90;75.80;;;;;;4925498;29;20726;-80
2023/02/20 09:45:07;;;;;;;2.80;0.93;;;14.00;75.60;;;;;;4923906;29;20059;-76
2023/02/20 09:47:57;;;;;;;2.67;1.10;;;14.20;75.70;;;;;;4927901;29;20377;-79
2023/02/20 09:50:38;;;;;;;1.95;0.70;;;14.30;75.50;;;;;;4925350;29;20601;-77
2023/02/20 09:53:29;;;;;;;3.03;0.95;;;14.50;75.50;;;;;;4928677;29;20035;-80
2023/02/20 09:55:57;;;;;;;1.85;0.52;;;14.60;75.50;;;;;;4923458;29;20118;-78
2023/02/20 09:58:32;;;;;;;0.77;0.35;;;14.70;75.30;;;;;;4925283;29;20039;-78
2023/02/20 10:01:01;;;;;;;1.23;0.40;;;14.90;75.50;;;;;;4922554;29;20782;-77
2023/02/20 10:03:48;;;;;;;2.80;0.63;;;15.00;75.30;;;;;;4929003;29;20425;-79
2023/02/20 10:06:19;;;;;;;0.40;0.32;;;15.20;75.40;;;;;;4926983;29;20053;-78
2023/02/20 10:08:50;;;;;;;2.72;0.60;;;15.30;75.20;;;;;;4922084;29;20055;-74
2023/02/20 10:11:36;;;;;;;3.40;1.30;;;15.30;74.90;;;;;;4926715;29;20443;-74
2023/02/20 10:14:19;;;;;;;0.73;0.57;;;15.50;75.20;;;;;;4923830;29;20113;-75
2023/02/20 10:17:03;;;;;;;5.20;0.80;;;15.60;75.20;;;;;;4928041;29;20044;-75
2023/02/20 10:19:44;;;;;;;1.40;0.55;;;15.80;75.30;;;;;;4925728;28;20383;-79
2023/02/20 10:22:27;;;;;;;1.77;0.52;;;16.10;75.20;;;;;;4928982;29;20027;-78
2023/02/20 10:25:01;;;;;;;1.95;0.77;;;16.20;74.80;;;;;;4927139;28;20035;-78
2023/02/20 10:27:55;;;;;;;1.10;0.40;;;16.40;74.80;;;;;;4925598;29;20031;-78
2023/02/20 10:30:30;;;;;;;1.23;0.47;;;16.40;74.20;;;;;;4928329;29;20130;-78
2023/02/20 10:33:03;;;;;;;5.47;0.57;;;16.50;74.10;;;;;;4927801;29;20110;-75
2023/02/20 10:35:36;;;;;;;;;;;16.50;73.80;;;;;;4926001;29;20035;-75
2023/02/20 10:38:07;;;;;;;1.65;0.40;;;16.50;73.70;;;;;;4928215;29;19925;-75
2023/02/20 10:40:41;;;;;;;1.65;0.30;;;16.60;73.80;;;;;;4925132;29;20039;-75
2023/02/20 10:43:18;;;;;;;0.75;0.30;;;16.60;73.60;;;;;;4925803;29;20036;-74
2023/02/20 10:45:53;;;;;;;0.77;0.30;;;16.70;73.30;;;;;;4924049;29;20038;-75
2023/02/20 10:48:21;;;;;;;0.82;0.40;;;16.70;73.00;;;;;;4928168;29;20106;-74
2023/02/20 10:51:10;;;;;;;1.17;0.20;;;16.80;72.90;;;;;;4924266;29;20043;-75
2023/02/20 10:53:57;;;;;;;0.95;0.50;;;16.90;72.60;;;;;;4920482;29;20046;-75
2023/02/20 10:56:46;;;;;;;1.17;0.32;;;16.90;72.40;;;;;;4922388;29;20071;-75
2023/02/20 10:59:21;;;;;;;0.68;0.30;;;17.00;72.50;;;;;;4912215;29;20566;-75
2023/02/20 11:01:53;;;;;;;0.45;0.28;;;17.10;72.20;;;;;;4924988;29;20036;-78
2023/02/20 11:04:33;;;;;;;1.23;0.70;;;17.20;71.90;;;;;;4923130;29;20044;-78
2023/02/20 11:07:19;;;;;;;2.30;0.50;;;17.20;71.50;;;;;;4904346;29;20503;-79
2023/02/20 11:09:45;;;;;;;1.50;0.30;;;17.30;71.20;;;;;;4918136;29;20098;-78
2023/02/20 11:12:34;;;;;;;1.17;0.68;;;17.40;71.30;;;;;;4922952;29;20098;-77
2023/02/20 11:15:06;;;;;;;0.22;0.22;;;17.50;70.70;;;;;;4925161;29;20392;-79
2023/02/20 11:17:33;;;;;;;0.73;0.40;;;17.60;70.80;;;;;;4923366;29;20059;-80
2023/02/20 11:20:01;;;;;;;0.47;0.25;;;17.70;70.70;;;;;;4922357;29;20242;-78
2023/02/20 11:22:46;;;;;;;0.60;0.30;;;17.70;70.40;;;;;;4920095;29;20100;-80
2023/02/20 11:25:27;;;;;;;0.60;0.47;;;17.80;70.00;;;;;;4904584;29;20063;-79
2023/02/20 11:28:07;;;;;;;0.65;0.30;;;17.80;69.80;;;;;;4919766;29;20040;-75
2023/02/20 11:30:36;;;;;;;0.70;0.40;;;17.80;69.80;;;;;;4915778;29;20056;-74
2023/02/20 11:33:05;;;;;;;0.20;0.20;;;18.00;69.90;;;;;;4931363;28;20042;-74
2023/02/20 11:35:36;;;;;;;1.80;0.30;;;18.00;69.60;;;;;;4933934;28;20043;-76
2023/02/20 11:38:13;;;;;;;0.20;0.20;;;18.10;69.50;;;;;;4918677;29;20028;-76
2023/02/20 11:40:40;;;;;;;0.20;0.20;;;18.20;69.20;;;;;;4919071;29;20063;-77
2023/02/20 11:43:18;;;;;;;0.40;0.20;;;18.20;69.10;;;;;;4915677;29;20079;-76
2023/02/20 11:45:44;;;;;;;1.10;0.17;;;18.30;68.80;;;;;;4918096;29;20517;-76
2023/02/20 11:48:13;;;;;;;0.30;0.20;;;18.30;68.70;;;;;;4925825;29;20031;-76
2023/02/20 11:50:47;;;;;;;0.63;0.20;;;18.40;68.60;;;;;;4922554;29;20039;-80
2023/02/20 11:53:25;;;;;;;0.88;0.30;;;18.40;68.40;;;;;;4924967;29;20035;-77
2023/02/20 11:56:16;;;;;;;0.20;0.20;;;18.30;68.10;;;;;;4910719;29;20123;-76
2023/02/20 11:58:44;;;;;;;0.95;0.35;;;18.20;68.00;;;;;;4918579;29;20036;-77
2023/02/20 12:01:32;;;;;;;0.73;0.40;;;18.10;68.20;;;;;;4923968;29;20047;-76
2023/02/20 12:04:00;;;;;;;1.17;0.30;;;18.10;67.80;;;;;;4920879;29;20035;-79
2023/02/20 12:06:32;;;;;;;1.27;0.28;;;18.00;67.90;;;;;;4922092;29;20047;-73
2023/02/20 12:09:01;;;;;;;1.13;0.45;;;17.90;67.70;;;;;;4922670;29;20043;-74
2023/02/20 12:11:28;;;;;;;1.33;0.25;;;17.80;67.70;;;;;;4922171;29;20134;-74
2023/02/20 12:13:57;;;;;;;0.60;0.20;;;17.70;67.70;;;;;;4921511;29;20522;-74
2023/02/20 12:16:31;;;;;;;1.15;0.43;;;17.60;67.70;;;;;;4923919;29;20051;-74
2023/02/20 12:19:06;;;;;;;2.10;0.82;;;17.50;67.60;;;;;;4917359;29;20399;-74
2023/02/20 12:21:55;;;;;;;0.20;0.20;;;17.40;67.60;;;;;;4921867;29;20095;-78
2023/02/20 12:24:40;;;;;;;1.98;0.50;;;17.30;67.40;;;;;;4914918;29;20126;-78
2023/02/20 12:27:42;;;;;;;0.65;0.22;;;17.30;67.40;;;;;;4916854;29;20047;-78
2023/02/20 12:30:32;;;;;;;0.20;0.20;;;17.30;67.50;;;;;;4922150;29;20051;-77
2023/02/20 12:33:36;;;;;;;1.45;0.40;;;17.30;67.60;;;;;;4922503;29;20062;-78
2023/02/20 12:36:25;;;;;;;0.50;0.50;;;17.20;67.30;;;;;;4921460;29;20039;-78
2023/02/20 12:39:09;;;;;;;0.47;0.30;;;17.20;67.40;;;;;;4909622;29;20043;-78
2023/02/20 12:41:47;;;;;;;1.13;0.20;;;17.30;67.30;;;;;;4920032;29;20528;-78
2023/02/20 12:44:16;;;;;;;0.43;0.20;;;17.20;67.30;;;;;;4916337;29;20048;-78
2023/02/20 12:46:42;;;;;;;0.50;0.20;;;17.20;67.20;;;;;;4922463;29;20191;-78
2023/02/20 12:49:45;;;;;;;0.55;0.28;;;17.20;67.10;;;;;;4923567;29;20119;-78
2023/02/20 12:52:30;;;;;;;0.28;0.20;;;17.10;66.70;;;;;;4919102;29;20601;-78
2023/02/20 12:55:07;;;;;;;0.63;0.30;;;17.00;66.90;;;;;;4913781;29;20044;-78
2023/02/20 12:57:36;;;;;;;0.10;0.10;;;16.90;66.70;;;;;;4920119;29;20151;-78
2023/02/20 13:00:29;;;;;;;0.73;0.25;;;16.90;66.90;;;;;;4921957;29;20050;-78
2023/02/20 13:03:07;;;;;;;0.20;0.20;;;16.80;66.70;;;;;;4921678;29;20267;-79
2023/02/20 13:05:38;;;;;;;0.73;0.47;;;16.80;67.00;;;;;;4920626;29;20054;-78
2023/02/20 13:08:14;;;;;;;0.57;0.15;;;16.90;67.30;;;;;;4923047;29;20067;-77
2023/02/20 13:10:51;;;;;;;1.65;0.30;;;17.00;67.20;;;;;;4919257;29;20583;-79
2023/02/20 13:13:18;;;;;;;0.75;0.20;;;17.20;67.20;;;;;;4916975;29;20130;-78
2023/02/20 13:15:50;;;;;;;2.17;0.57;;;17.40;67.10;;;;;;4922397;29;20082;-77
2023/02/20 13:18:23;;;;;;;0.60;0.28;;;17.60;66.90;;;;;;4923143;29;20057;-77
2023/02/20 13:21:18;;;;;;;0.22;0.20;;;17.80;66.90;;;;;;4914733;29;20035;-77
2023/02/20 13:23:45;;;;;;;2.03;0.75;;;17.90;66.80;;;;;;4919990;29;20299;-78
2023/02/20 13:26:32;;;;;;;0.80;0.20;;;18.10;66.80;;;;;;4919443;29;20279;-77